< Typhoon 199019 1990 Season Typhoon 199021 >
Typhoon 199020 (GENE)
General InformationTrack Information on Google MapsDetailed Wind InformationList of All Images || Disaster Info.ResourceGoogle EarthGE AnimationAtom FeedGeoJSON
Detalied Best Track (Time Zone = UTC)
Year Month Day Hour Lat. Long. Pressure (hPa) Wind (kt) Class Image Chart
1990 9 22 00 13.5 135.0 1010 0 2 Image Chart
1990 9 22 06 13.5 134.5 1008 0 2 Image Chart
1990 9 22 12 13.5 134.0 1008 0 2 Image Chart
1990 9 22 18 13.7 133.5 1008 0 2 Image Chart
1990 9 23 00 14.5 133.2 1006 0 2 Image Chart
1990 9 23 06 15.5 133.0 1004 0 2 Image Chart
1990 9 23 12 16.5 132.5 1004 0 2 Image Chart
1990 9 23 18 17.2 131.9 1002 0 2 Image Chart
1990 9 24 00 17.9 131.5 1000 35 3 Image Chart
1990 9 24 06 18.5 130.6 998 35 3 Image Chart
1990 9 24 12 19.3 129.6 996 40 3 Image Chart
1990 9 24 18 19.7 128.5 990 45 3 Image Chart
1990 9 25 00 20.0 127.9 985 50 4 Image Chart
1990 9 25 06 20.6 127.3 980 55 4 Image Chart
1990 9 25 12 21.5 126.9 975 60 4 Image Chart
1990 9 25 18 22.2 126.5 970 65 5 Image Chart
1990 9 26 00 22.9 126.5 965 70 5 Image Chart
1990 9 26 06 23.5 126.4 965 70 5 Image Chart
1990 9 26 12 24.1 126.4 965 70 5 Image Chart
1990 9 26 18 24.7 126.2 965 70 5 Image Chart
1990 9 27 00 25.4 126.2 965 70 5 Image Chart
1990 9 27 06 26.1 125.9 965 70 5 Image Chart
1990 9 27 12 26.7 126.0 965 70 5 Image Chart
1990 9 27 18 27.3 126.2 965 70 5 Image Chart
1990 9 28 00 27.8 126.5 960 75 5 Image Chart
1990 9 28 06 28.4 127.0 950 80 5 Image Chart
1990 9 28 12 29.1 127.7 950 80 5 Image Chart
1990 9 28 18 29.7 128.4 955 75 5 Image Chart
1990 9 29 00 30.2 129.3 965 70 5 Image Chart
1990 9 29 06 31.1 130.9 970 65 5 Image Chart
1990 9 29 12 31.8 132.2 970 65 5 Image Chart
1990 9 29 18 32.6 133.5 975 60 4 Image Chart
1990 9 30 00 33.6 135.2 980 55 4 Image Chart
1990 9 30 06 34.8 137.2 992 45 3 Image Chart
1990 9 30 12 35.5 140.0 1008 0 6 Image Chart
1990 9 30 18 36.0 141.0 1006 0 6 Image Chart
1990 10 1 00 38.0 143.0 1004 0 6 Image Chart
1990 10 1 06 40.0 144.0 1004 0 6 Image Chart
1990 10 1 12 42.0 146.0 1002 0 6 Image Chart
1990 10 1 18 45.0 147.0 1000 0 6 Image Chart
Japan Meteorological Agency Best Track Data | Correction Date : 1992-10-21
< Typhoon 199019 1990 Season Typhoon 199021 >

Help